UPSVAC Airport Information Service

Burbank Bob Hope Airport

ICAO: KBUR Country: United States
Latitude: 34.2007 Longitude: -118.358
Latest Arrival : UPSJUMP (KCVG-KBUR) Latest Departure : UPS1605 (KBUR-KSDF)


WX CaptureLIVE
Data provided by noaa.gov | Fetched at 14:32:33

METAR : KBUR 141414Z 17005KT 10SM BKN021 BKN030 OVC041 12/08 A2997 RMK AO2 T01170078 $

TAF : KBUR 141147Z 1412/1512 18005KT P6SM BKN016 OVC035 FM142100 18010KT P6SM OVC050 FM150500 VRB03KT P6SM OVC025


Runway Data for KBUR
Data provided by openaviationdata.com

Runway ID Mag Var Hdg Length Elevation Surface ILS Freq ILS Id ILS Slope
8 15 75° 5795 ft 721 ft Asphalt 109.5 IBUR 3
15 15 152° 6895 ft 721 ft Asphalt -- -- --
26 15 255° 5795 ft 721 ft Asphalt -- -- --
33 15 332° 6895 ft 721 ft Asphalt -- -- --

Burbank Bob Hope Airport, United States
Use only for reference purposes



Not for navigational purposes.